首页
METAR-TAF:

METAR-TAF

机场 :

格罗塞托, 意大利

纬度: 42-45N, 经度: 011-04E, 海拔: 5米

当前天气观测

该预报发布于39分钟前的00:55 UTC
风速4节,风向东转东南
温度 15°C
湿度 82%
气压 1014 hPa
能见度10公里或以上
少量云层高于1000英尺
散云层高于1500英尺

METAR: LIRS 250055Z 12004KT 9999 FEW010 SCT015 15/12 Q1014 RMK SCT VIS MIN 8000N WIND THR03 14004KT WIND THR21 15003KT BLU

时间: 03:34 (01:34 UTC)

预报

该预报发布于2小时和34分钟前的23:00 UTC
预报有效从25日的 00点(UTC)到 25日的 09点(UTC)
风速3节,风向多变
能见度10公里或以上
1500米以下无云,无积雨云
短暂存在
从 25日的 00点(UTC)到 25日的 06点(UTC)
能見度: 5000
轻雾

TAF: LIRS 242300Z 2500/2509 VRB03KT CAVOK TEMPO 2500/2506 5000 BR NSC

超过4000个机场的气象观测和天气预报(METAR&TAF报告)。

可查询的气象台以黄色和红色小点在地图上表示。

将鼠标移到小点上方,可查看气象台名称。

然后点击查看天气观测和预报。

如需切换地图:点击带黑十字的绿色按钮放大地图;点击带横线的绿色按钮缩小地图;或者点击绿色箭头查看邻近地区的地图。


METAR-TAF: